Time;durP1;ratioP1;P1;durP2;ratioP2;P2;SDS_P1;SDS_P2;PMS_P1;PMS_P2;Temp;Humidity;BMP_temperature;BMP_pressure;BME280_temperature;BME280_humidity;BME280_pressure;Samples;Min_cycle;Max_cycle;Signal;HPM_P1;HPM_P2
2022/10/13 00:00:46;;;;;;;26.77;14.40;;;;;;;10.40;100.00;101619.28;5017375;28;20048;-77
2022/10/13 00:03:13;;;;;;;30.02;15.60;;;;;;;10.41;100.00;101622.88;5008065;28;20501;-77
2022/10/13 00:05:46;;;;;;;31.40;15.10;;;;;;;10.44;100.00;101611.84;5021626;28;20041;-77
2022/10/13 00:08:14;;;;;;;27.13;15.85;;;;;;;10.49;100.00;101616.25;5018192;28;20056;-76
2022/10/13 00:10:41;;;;;;;29.17;16.33;;;;;;;10.46;100.00;101605.94;5017815;28;20049;-76
2022/10/13 00:13:07;;;;;;;29.45;15.63;;;;;;;10.49;100.00;101603.22;5010799;28;20056;-76
2022/10/13 00:15:43;;;;;;;27.15;14.52;;;;;;;10.50;100.00;101613.09;5008604;28;20056;-77
2022/10/13 00:18:09;;;;;;;31.13;14.85;;;;;;;10.50;100.00;101609.56;5012905;28;20053;-76
2022/10/13 00:20:44;;;;;;;32.38;15.15;;;;;;;10.34;100.00;101586.81;5012517;28;20053;-77
2022/10/13 00:23:12;;;;;;;29.20;15.82;;;;;;;10.46;100.00;101606.72;5018306;28;20049;-76
2022/10/13 00:25:41;;;;;;;32.35;15.48;;;;;;;10.44;100.00;101600.75;5013912;28;20064;-76
2022/10/13 00:28:07;;;;;;;29.88;15.02;;;;;;;10.43;100.00;101601.16;5009580;28;20049;-76
2022/10/13 00:30:36;;;;;;;28.25;15.27;;;;;;;10.39;100.00;101592.00;5008829;28;20057;-77
2022/10/13 00:33:03;;;;;;;27.50;14.65;;;;;;;10.38;100.00;101588.44;5014978;28;20055;-76
2022/10/13 00:35:30;;;;;;;26.08;14.13;;;;;;;10.40;100.00;101599.94;5012716;28;20053;-76
2022/10/13 00:37:56;;;;;;;30.52;15.85;;;;;;;10.39;100.00;101595.56;5010987;28;20687;-75
2022/10/13 00:40:23;;;;;;;33.40;14.98;;;;;;;10.34;100.00;101590.38;5009792;28;20057;-77
2022/10/13 00:42:49;;;;;;;28.58;14.55;;;;;;;10.34;100.00;101593.16;4991273;28;20065;-77
2022/10/13 00:45:28;;;;;;;32.50;14.98;;;;;;;10.34;100.00;101598.69;5012448;28;20823;-77
2022/10/13 00:48:00;;;;;;;29.58;15.25;;;;;;;10.31;100.00;101599.44;5010338;28;20099;-77
2022/10/13 00:50:32;;;;;;;29.55;14.88;;;;;;;10.29;100.00;101590.69;5007793;28;20710;-77
2022/10/13 00:53:00;;;;;;;31.52;16.08;;;;;;;10.28;100.00;101599.38;5010230;28;20569;-75
2022/10/13 00:55:30;;;;;;;30.48;16.38;;;;;;;10.27;100.00;101598.56;5013360;28;20050;-76
2022/10/13 00:58:00;;;;;;;35.75;15.50;;;;;;;10.28;100.00;101589.09;4993356;28;20051;-77
2022/10/13 01:00:32;;;;;;;29.63;15.85;;;;;;;10.29;100.00;101590.69;5006499;28;20619;-76
2022/10/13 01:03:00;;;;;;;35.97;16.13;;;;;;;10.29;100.00;101590.69;5011581;28;20081;-76
2022/10/13 01:05:28;;;;;;;30.17;15.43;;;;;;;10.31;100.00;101582.03;5015051;28;20048;-77
2022/10/13 01:07:56;;;;;;;29.08;14.23;;;;;;;10.33;100.00;101580.47;5008452;28;20061;-77
2022/10/13 01:11:04;;;;;;;30.17;14.20;;;;;;;10.32;100.00;101581.66;5007958;28;20057;-77
2022/10/13 01:13:37;;;;;;;41.00;15.27;;;;;;;10.33;100.00;101579.69;4966402;28;20052;-77
2022/10/13 01:16:19;;;;;;;31.35;15.50;;;;;;;10.35;100.00;101580.09;5008367;28;20093;-76
2022/10/13 01:18:59;;;;;;;27.60;14.77;;;;;;;10.29;100.00;101560.25;5009117;28;20045;-76
2022/10/13 01:21:39;;;;;;;29.30;16.23;;;;;;;10.29;100.00;101551.97;5014260;28;20166;-76
2022/10/13 01:24:14;;;;;;;31.55;15.63;;;;;;;10.29;100.00;101557.50;5011728;28;20060;-76
2022/10/13 01:26:41;;;;;;;;;;;;;;;10.30;100.00;101561.84;5011442;28;20785;-77
2022/10/13 01:29:25;;;;;;;32.50;15.68;;;;;;;10.29;100.00;101563.03;5007005;28;19932;-76
2022/10/13 01:32:25;;;;;;;34.65;16.50;;;;;;;10.30;100.00;101553.56;5010951;28;20060;-75
2022/10/13 01:35:00;;;;;;;30.60;15.38;;;;;;;10.31;100.00;101555.16;5010656;28;20096;-76
2022/10/13 01:37:31;;;;;;;28.55;16.10;;;;;;;10.35;100.00;101552.44;5014709;28;20049;-76
2022/10/13 01:40:18;;;;;;;30.55;15.50;;;;;;;10.34;100.00;101548.88;5009627;28;20057;-77
2022/10/13 01:42:50;;;;;;;26.98;14.85;;;;;;;10.37;100.00;101548.09;5001473;28;20058;-76
2022/10/13 01:45:20;;;;;;;30.00;15.55;;;;;;;10.38;100.00;101549.72;5009877;28;20060;-77
2022/10/13 01:47:48;;;;;;;33.65;17.30;;;;;;;10.35;100.00;101542.19;5034423;28;20505;-76
2022/10/13 01:50:17;;;;;;;33.15;16.63;;;;;;;10.40;100.00;101550.13;5011620;28;20051;-76
2022/10/13 01:52:45;;;;;;;29.45;14.88;;;;;;;10.40;100.00;101541.06;5032602;28;20041;-78
2022/10/13 01:55:12;;;;;;;29.92;14.52;;;;;;;10.43;100.00;101543.06;5038297;28;20669;-76
2022/10/13 01:57:42;;;;;;;33.15;17.05;;;;;;;10.40;100.00;101529.97;5018351;28;20057;-75
2022/10/13 02:00:15;;;;;;;32.60;16.70;;;;;;;10.41;100.00;101537.91;5026118;28;20055;-75
2022/10/13 02:02:41;;;;;;;31.42;15.68;;;;;;;10.42;100.00;101528.44;5033475;28;20057;-76
2022/10/13 02:05:13;;;;;;;31.60;16.23;;;;;;;10.44;100.00;101533.59;5034630;28;20103;-76
2022/10/13 02:07:52;;;;;;;29.15;15.52;;;;;;;10.45;100.00;101529.63;5032942;28;20053;-77
2022/10/13 02:10:36;;;;;;;28.17;15.40;;;;;;;10.45;100.00;101529.63;5007088;28;20052;-77
2022/10/13 02:13:05;;;;;;;30.35;15.55;;;;;;;10.45;100.00;101527.69;5031018;28;20054;-75
2022/10/13 02:15:37;;;;;;;29.38;15.80;;;;;;;10.44;100.00;101522.50;5030092;28;20049;-76
2022/10/13 02:18:06;;;;;;;31.60;15.05;;;;;;;10.49;100.00;101522.16;5005056;28;20060;-76
2022/10/13 02:20:33;;;;;;;33.08;16.00;;;;;;;10.49;100.00;101511.09;5029990;28;20072;-78
2022/10/13 02:23:06;;;;;;;29.90;14.30;;;;;;;10.52;100.00;101521.41;4999836;28;20049;-76
2022/10/13 02:25:32;;;;;;;29.13;14.90;;;;;;;10.50;100.00;101523.78;5030085;28;20464;-76
2022/10/13 02:28:00;;;;;;;27.23;14.55;;;;;;;10.54;100.00;101524.63;5040623;28;20561;-76
2022/10/13 02:30:29;;;;;;;34.30;15.98;;;;;;;10.58;100.00;101511.63;5014616;28;20494;-78
2022/10/13 02:32:55;;;;;;;27.80;14.63;;;;;;;10.57;100.00;101523.88;5036569;28;20045;-76
2022/10/13 02:35:22;;;;;;;27.85;14.90;;;;;;;10.59;100.00;101524.25;5031160;28;20050;-76
2022/10/13 02:37:48;;;;;;;28.38;14.30;;;;;;;10.60;100.00;101516.78;5020051;28;20119;-76
2022/10/13 02:40:15;;;;;;;32.38;14.75;;;;;;;10.59;100.00;101517.94;5024011;28;20075;-75
2022/10/13 02:42:41;;;;;;;29.85;14.80;;;;;;;10.60;100.00;101528.66;5032049;28;20057;-76
2022/10/13 02:45:08;;;;;;;26.48;13.68;;;;;;;10.60;100.00;101531.41;5037235;28;20056;-76
2022/10/13 02:47:35;;;;;;;30.58;15.75;;;;;;;10.64;100.00;101528.66;5023407;28;20045;-76
2022/10/13 02:50:02;;;;;;;29.63;14.73;;;;;;;10.67;100.00;101527.91;5029904;28;20107;-76
2022/10/13 02:52:29;;;;;;;29.33;15.02;;;;;;;10.65;100.00;101524.72;5031299;28;20053;-76
2022/10/13 02:54:55;;;;;;;27.95;15.48;;;;;;;10.72;100.00;101525.59;5031032;28;20461;-76
2022/10/13 02:57:22;;;;;;;28.40;15.40;;;;;;;10.75;100.00;101533.16;5033256;28;20052;-76
2022/10/13 02:59:48;;;;;;;36.10;15.98;;;;;;;10.72;100.00;101513.72;5029380;28;20061;-76
2022/10/13 03:02:16;;;;;;;27.67;14.60;;;;;;;10.79;100.00;101516.56;5027134;28;20057;-75
2022/10/13 03:04:43;;;;;;;31.65;16.40;;;;;;;10.82;100.00;101521.34;5026493;28;20045;-76
2022/10/13 03:07:09;;;;;;;31.17;14.48;;;;;;;10.81;100.00;101523.34;5024959;28;20046;-76
2022/10/13 03:09:36;;;;;;;30.58;14.45;;;;;;;10.82;100.00;101524.13;5022833;28;20064;-76
2022/10/13 03:12:03;;;;;;;29.63;14.40;;;;;;;10.82;100.00;101513.03;5005505;28;20828;-76
2022/10/13 03:14:29;;;;;;;27.27;13.55;;;;;;;10.79;100.00;101509.06;5023265;28;20057;-76
2022/10/13 03:16:56;;;;;;;30.90;16.98;;;;;;;10.88;100.00;101511.53;5016101;28;20042;-75
2022/10/13 03:19:22;;;;;;;26.20;13.30;;;;;;;10.88;100.00;101501.28;5027370;28;20410;-76
2022/10/13 03:21:49;;;;;;;29.20;14.18;;;;;;;10.94;100.00;101505.28;5037239;28;20111;-77
2022/10/13 03:24:15;;;;;;;27.73;14.25;;;;;;;10.98;100.00;101500.56;5023882;28;20097;-76
2022/10/13 03:26:41;;;;;;;34.63;14.93;;;;;;;11.02;100.00;101501.41;5029333;28;20050;-76
2022/10/13 03:29:13;;;;;;;28.38;13.73;;;;;;;11.05;100.00;101494.28;5018594;28;20503;-75
2022/10/13 03:31:40;;;;;;;28.55;14.57;;;;;;;11.08;100.00;101494.34;5022204;28;20061;-76
2022/10/13 03:34:11;;;;;;;30.23;13.98;;;;;;;11.06;100.00;101501.41;5013978;28;20053;-75
2022/10/13 03:36:38;;;;;;;28.40;14.25;;;;;;;11.09;100.00;101498.69;5019735;28;20049;-76
2022/10/13 03:39:05;;;;;;;29.20;14.32;;;;;;;11.15;100.00;101504.69;5032530;28;20767;-75
2022/10/13 03:41:32;;;;;;;27.05;14.48;;;;;;;11.20;100.00;101493.25;5009885;28;20164;-75
2022/10/13 03:43:58;;;;;;;27.40;13.43;;;;;;;11.27;100.00;101501.63;5039606;28;20502;-76
2022/10/13 03:46:27;;;;;;;27.95;14.02;;;;;;;11.30;100.00;101487.00;5028231;28;20057;-76
2022/10/13 03:48:54;;;;;;;31.05;14.25;;;;;;;11.36;100.00;101482.69;5032268;28;20049;-75
2022/10/13 03:51:21;;;;;;;26.30;13.82;;;;;;;11.41;100.00;101491.44;5013336;28;20099;-76
2022/10/13 03:53:50;;;;;;;30.45;13.40;;;;;;;11.40;100.00;101484.31;5021330;28;20053;-76
2022/10/13 03:56:23;;;;;;;33.22;14.52;;;;;;;11.41;100.00;101477.56;5019421;28;20065;-76
2022/10/13 03:58:53;;;;;;;30.35;13.00;;;;;;;11.43;100.00;101482.75;5006328;28;20061;-75
2022/10/13 04:01:22;;;;;;;29.92;13.32;;;;;;;11.47;100.00;101475.28;5027541;28;20096;-76
2022/10/13 04:03:50;;;;;;;32.05;13.48;;;;;;;11.51;100.00;101470.53;5027880;28;20135;-76
2022/10/13 04:06:17;;;;;;;29.15;12.63;;;;;;;11.63;100.00;101468.28;5009632;28;20053;-78
2022/10/13 04:08:43;;;;;;;29.95;12.80;;;;;;;11.72;100.00;101467.94;5019043;28;20045;-75
2022/10/13 04:11:13;;;;;;;29.70;12.57;;;;;;;11.79;100.00;101473.53;5009910;28;20430;-76
2022/10/13 04:13:40;;;;;;;29.08;13.27;;;;;;;11.87;100.00;101469.59;5024009;28;20049;-78
2022/10/13 04:16:17;;;;;;;26.45;13.23;;;;;;;11.91;100.00;101462.13;5029001;28;20046;-77
2022/10/13 04:18:44;;;;;;;29.05;13.52;;;;;;;11.94;100.00;101453.00;5011833;28;20490;-77
2022/10/13 04:21:13;;;;;;;27.27;12.50;;;;;;;11.94;100.00;101458.53;5022282;28;20100;-78
2022/10/13 04:23:40;;;;;;;28.13;13.02;;;;;;;11.96;100.00;101461.72;5027540;28;20636;-77
2022/10/13 04:26:17;;;;;;;31.63;13.20;;;;;;;11.96;100.00;101453.41;5014392;28;20041;-76
2022/10/13 04:28:44;;;;;;;31.85;13.48;;;;;;;12.00;100.00;101451.44;5029215;28;20044;-76
2022/10/13 04:31:11;;;;;;;25.65;13.35;;;;;;;12.06;100.00;101456.25;5025169;28;20077;-78
2022/10/13 04:33:38;;;;;;;28.95;13.25;;;;;;;12.06;100.00;101445.16;5024912;28;20053;-76
2022/10/13 04:36:06;;;;;;;32.00;12.57;;;;;;;12.14;100.00;101462.59;5027393;28;20044;-75
2022/10/13 04:38:33;;;;;;;30.20;13.40;;;;;;;12.17;100.00;101454.31;5032725;28;20044;-77
2022/10/13 04:41:03;;;;;;;28.63;13.57;;;;;;;12.23;100.00;101451.94;5035026;28;20052;-76
2022/10/13 04:43:31;;;;;;;27.52;13.38;;;;;;;12.23;100.00;101440.84;5028930;28;20049;-78
2022/10/13 04:46:02;;;;;;;32.92;13.13;;;;;;;12.24;100.00;101446.00;5027576;28;20379;-77
2022/10/13 04:48:29;;;;;;;29.77;13.52;;;;;;;12.21;100.00;101446.78;5031659;28;20041;-77
2022/10/13 04:50:59;;;;;;;25.27;12.32;;;;;;;12.17;100.00;101448.75;5029824;28;20448;-77
2022/10/13 04:53:28;;;;;;;26.60;11.82;;;;;;;12.17;100.00;101439.63;5029989;28;20049;-76
2022/10/13 04:56:07;;;;;;;28.20;12.85;;;;;;;12.15;100.00;101442.03;5027869;28;20041;-76
2022/10/13 04:58:35;;;;;;;26.45;12.27;;;;;;;12.10;100.00;101445.16;5021560;28;20052;-76
2022/10/13 05:01:03;;;;;;;25.42;11.07;;;;;;;12.05;100.00;101435.22;5026331;28;20095;-77
2022/10/13 05:03:30;;;;;;;28.20;12.45;;;;;;;12.09;100.00;101432.47;5011562;28;20067;-78
2022/10/13 05:05:56;;;;;;;30.05;14.45;;;;;;;12.08;100.00;101442.00;5029993;28;20041;-78
2022/10/13 05:08:23;;;;;;;32.53;14.30;;;;;;;12.10;100.00;101425.72;5027214;28;20087;-76
2022/10/13 05:10:58;;;;;;;29.88;13.02;;;;;;;12.07;100.00;101432.88;5023594;28;20052;-78
2022/10/13 05:13:25;;;;;;;28.00;13.45;;;;;;;12.07;100.00;101429.28;5034465;28;20045;-76
2022/10/13 05:15:52;;;;;;;33.67;13.23;;;;;;;12.05;100.00;101421.34;5028144;28;20061;-78
2022/10/13 05:18:18;;;;;;;28.95;13.35;;;;;;;12.05;100.00;101417.81;5034581;28;20042;-75
2022/10/13 05:20:45;;;;;;;26.95;12.02;;;;;;;12.01;100.00;101431.63;5012203;28;20064;-77
2022/10/13 05:23:13;;;;;;;27.85;12.38;;;;;;;11.94;100.00;101414.16;5026642;28;20042;-77
2022/10/13 05:25:39;;;;;;;27.05;12.05;;;;;;;11.96;100.00;101431.22;5011337;28;20037;-77
2022/10/13 05:28:06;;;;;;;32.00;13.45;;;;;;;11.96;100.00;101422.91;5028355;28;20041;-77
2022/10/13 05:30:33;;;;;;;32.15;13.10;;;;;;;11.96;100.00;101426.47;5031942;28;20064;-77
2022/10/13 05:33:00;;;;;;;28.75;13.10;;;;;;;11.95;100.00;101437.97;5032060;28;20053;-76
2022/10/13 05:35:27;;;;;;;30.65;13.57;;;;;;;11.93;100.00;101423.69;5029621;28;20064;-78
2022/10/13 05:37:53;;;;;;;32.42;15.23;;;;;;;11.97;100.00;101422.53;5011221;28;20041;-78
2022/10/13 05:40:20;;;;;;;31.02;13.02;;;;;;;12.00;100.00;101418.97;5028322;28;20087;-76
2022/10/13 05:42:50;;;;;;;29.98;12.90;;;;;;;11.97;100.00;101418.94;5026715;28;20049;-76
2022/10/13 05:45:18;;;;;;;29.15;14.13;;;;;;;11.95;100.00;101410.22;5027728;28;20388;-76
2022/10/13 05:47:45;;;;;;;27.30;12.13;;;;;;;11.93;100.00;101415.34;5043365;28;20405;-76
2022/10/13 05:50:11;;;;;;;25.15;12.38;;;;;;;11.89;100.00;101418.13;5027736;28;20050;-76
2022/10/13 05:52:38;;;;;;;25.70;12.75;;;;;;;11.83;100.00;101403.03;5034405;28;20041;-76
2022/10/13 05:55:08;;;;;;;27.40;12.80;;;;;;;11.88;100.00;101407.44;5028520;28;20045;-77
2022/10/13 05:58:01;;;;;;;28.40;12.73;;;;;;;11.84;100.00;101410.16;5018300;28;20053;-77
2022/10/13 06:00:28;;;;;;;31.40;13.45;;;;;;;11.83;100.00;101399.47;5018318;28;20041;-77
2022/10/13 06:03:11;;;;;;;30.33;12.93;;;;;;;11.78;100.00;101408.16;5003995;28;20057;-76
2022/10/13 06:05:39;;;;;;;30.60;14.10;;;;;;;11.79;100.00;101409.75;5016762;28;20053;-76
2022/10/13 06:08:05;;;;;;;34.65;13.50;;;;;;;11.81;100.00;101402.63;5019270;28;20041;-77
2022/10/13 06:10:32;;;;;;;29.05;14.55;;;;;;;11.80;100.00;101398.28;5019927;28;20049;-77
2022/10/13 06:12:58;;;;;;;28.45;13.32;;;;;;;11.83;100.00;101383.63;5019932;28;20045;-76
2022/10/13 06:15:25;;;;;;;27.05;13.30;;;;;;;11.98;100.00;101395.59;5034690;28;20456;-76
2022/10/13 06:17:53;;;;;;;31.42;12.73;;;;;;;12.06;100.00;101391.66;5037726;28;20500;-77
2022/10/13 06:20:20;;;;;;;30.42;13.15;;;;;;;12.14;100.00;101385.72;5027510;28;20056;-79
2022/10/13 06:22:48;;;;;;;32.03;12.88;;;;;;;12.26;100.00;101377.03;5034574;28;20044;-75
2022/10/13 06:25:15;;;;;;;29.23;12.10;;;;;;;12.33;100.00;101370.72;5027262;28;20622;-78
2022/10/13 06:27:42;;;;;;;24.02;11.13;;;;;;;12.44;100.00;101374.31;5028893;28;20053;-77
2022/10/13 06:30:09;;;;;;;25.83;11.82;;;;;;;12.52;100.00;101371.13;5034448;28;20041;-79
2022/10/13 06:32:35;;;;;;;27.83;11.85;;;;;;;12.57;100.00;101370.75;5036165;28;20057;-79
2022/10/13 06:35:03;;;;;;;22.75;10.80;;;;;;;12.69;100.00;101375.13;5030774;28;20054;-78
2022/10/13 06:37:29;;;;;;;25.98;10.52;;;;;;;12.73;100.00;101381.50;5027159;28;20057;-74
2022/10/13 06:39:56;;;;;;;27.83;12.50;;;;;;;12.74;100.00;101385.84;5031976;28;20508;-75
2022/10/13 06:42:22;;;;;;;28.40;12.02;;;;;;;12.73;100.00;101378.72;5019800;28;20044;-77
2022/10/13 06:44:49;;;;;;;25.98;13.15;;;;;;;12.76;100.00;101380.69;5028408;28;20057;-77
2022/10/13 06:47:15;;;;;;;29.85;12.45;;;;;;;12.76;100.00;101387.03;5032507;28;20052;-78
2022/10/13 06:49:42;;;;;;;25.55;12.30;;;;;;;12.76;100.00;101391.81;5031404;28;20045;-77
2022/10/13 06:52:08;;;;;;;28.95;12.43;;;;;;;12.74;100.00;101391.38;5027812;28;21262;-78
2022/10/13 06:54:35;;;;;;;26.60;12.15;;;;;;;12.72;100.00;101393.75;5009392;28;20123;-77
2022/10/13 06:57:04;;;;;;;28.20;12.75;;;;;;;12.71;100.00;101397.72;5031048;28;20045;-78
2022/10/13 06:59:31;;;;;;;29.30;12.07;;;;;;;12.72;100.00;101396.53;5022658;28;20045;-78
2022/10/13 07:01:58;;;;;;;31.80;13.27;;;;;;;12.76;100.00;101397.34;5033464;28;20493;-77
2022/10/13 07:04:26;;;;;;;40.75;15.20;;;;;;;12.70;100.00;101393.38;5032718;28;20057;-76
2022/10/13 07:06:53;;;;;;;30.73;13.30;;;;;;;12.71;100.00;101403.28;5033300;28;20050;-77
2022/10/13 07:09:19;;;;;;;27.70;13.35;;;;;;;12.69;100.00;101406.47;5029709;28;20056;-75
2022/10/13 07:11:46;;;;;;;27.42;12.80;;;;;;;12.64;100.00;101406.06;5013743;28;20057;-75
2022/10/13 07:14:13;;;;;;;33.53;13.30;;;;;;;12.62;100.00;101408.41;5028746;28;20413;-74
2022/10/13 07:16:40;;;;;;;30.50;14.25;;;;;;;12.69;100.00;101403.69;5011180;28;20057;-74
2022/10/13 07:19:06;;;;;;;36.38;14.68;;;;;;;12.72;100.00;101410.41;5029454;28;20486;-74
2022/10/13 07:21:33;;;;;;;29.98;13.63;;;;;;;12.68;100.00;101401.28;5031503;28;20465;-74
2022/10/13 07:24:01;;;;;;;42.63;15.27;;;;;;;12.72;100.00;101408.44;5030454;28;20512;-76
2022/10/13 07:26:27;;;;;;;37.35;14.57;;;;;;;12.79;100.00;101402.91;5027036;28;20064;-74
2022/10/13 07:28:54;;;;;;;32.88;14.15;;;;;;;12.83;100.00;101400.91;5034822;28;20038;-76
2022/10/13 07:31:20;;;;;;;37.47;13.85;;;;;;;12.89;100.00;101412.41;5013194;28;20063;-74
2022/10/13 07:33:49;;;;;;;30.25;14.32;;;;;;;12.93;100.00;101410.47;5028523;28;20064;-74
2022/10/13 07:36:16;;;;;;;37.50;17.35;;;;;;;13.02;100.00;101402.53;5013753;28;20049;-78
2022/10/13 07:38:43;;;;;;;38.30;18.40;;;;;;;13.09;100.00;101390.63;5037543;28;20049;-76
2022/10/13 07:41:11;;;;;;;31.58;15.55;;;;;;;13.20;100.00;101399.75;5023818;28;20054;-77
2022/10/13 07:43:38;;;;;;;34.17;14.23;;;;;;;13.23;100.00;101393.41;5042753;28;20053;-74
2022/10/13 07:46:06;;;;;;;33.17;15.70;;;;;;;13.26;100.00;101401.72;5026751;28;20050;-76
2022/10/13 07:48:34;;;;;;;39.83;14.60;;;;;;;13.34;100.00;101400.53;5023375;28;20049;-74
2022/10/13 07:51:09;;;;;;;33.50;16.17;;;;;;;13.43;100.00;101398.13;5019837;28;20057;-74
2022/10/13 07:53:36;;;;;;;35.42;15.23;;;;;;;13.54;100.00;101398.91;5032078;28;20057;-76
2022/10/13 07:56:05;;;;;;;32.00;13.40;;;;;;;13.63;100.00;101399.25;4998383;28;20100;-75
2022/10/13 07:58:35;;;;;;;38.17;12.88;;;;;;;13.74;100.00;101396.47;5030061;28;20057;-76
2022/10/13 08:01:02;;;;;;;28.45;12.38;;;;;;;13.85;100.00;101409.16;5020587;28;20049;-75
2022/10/13 08:03:29;;;;;;;26.52;12.98;;;;;;;13.94;100.00;101400.38;5027964;28;20049;-74
2022/10/13 08:06:00;;;;;;;29.30;10.95;;;;;;;14.03;100.00;101400.72;5027417;28;20111;-77
2022/10/13 08:08:27;;;;;;;22.15;11.30;;;;;;;14.17;100.00;101403.44;5026037;28;20517;-75
2022/10/13 08:10:54;;;;;;;42.90;12.35;;;;;;;14.19;100.00;101395.47;5024969;28;20053;-76
2022/10/13 08:13:20;;;;;;;24.02;10.00;;;;;;;14.27;100.00;101399.81;5032330;28;20053;-74
2022/10/13 08:15:47;;;;;;;24.58;11.30;;;;;;;14.35;100.00;101396.59;5013338;28;20049;-75
2022/10/13 08:18:14;;;;;;;31.20;14.88;;;;;;;14.49;100.00;101398.50;5025058;28;20053;-75
2022/10/13 08:20:43;;;;;;;32.30;13.45;;;;;;;14.51;100.00;101398.91;5008089;28;20060;-77
2022/10/13 08:23:11;;;;;;;27.23;11.07;;;;;;;14.57;100.00;101395.28;5030848;28;20072;-75
2022/10/13 08:25:39;;;;;;;32.35;11.25;;;;;;;14.62;100.00;101392.03;5031374;28;20509;-76
2022/10/13 08:28:17;;;;;;;29.67;11.02;;;;;;;14.69;100.00;101403.16;5028650;28;20052;-76
2022/10/13 08:30:44;;;;;;;29.27;11.95;;;;;;;14.75;100.00;101401.50;5032724;28;20106;-76
2022/10/13 08:33:11;;;;;;;24.55;10.13;;;;;;;14.77;100.00;101407.47;5042940;28;20052;-76
2022/10/13 08:35:38;;;;;;;34.85;11.20;;;;;;;14.82;100.00;101414.63;5032701;28;20057;-73
2022/10/13 08:38:06;;;;;;;32.92;10.75;;;;;;;14.81;100.00;101407.44;5030822;28;20041;-73
2022/10/13 08:40:33;;;;;;;31.88;11.52;;;;;;;14.90;100.00;101400.22;5026857;28;20068;-76
2022/10/13 08:43:03;;;;;;;29.85;13.18;;;;;;;14.91;100.00;101401.00;5034435;28;20064;-76
2022/10/13 08:45:30;;;;;;;26.33;11.90;;;;;;;14.92;100.00;101408.16;5038095;28;20061;-73
2022/10/13 08:48:24;;;;;;;36.78;14.07;;;;;;;14.96;100.00;101404.13;5033266;28;20048;-75
2022/10/13 08:50:55;;;;;;;27.20;11.07;;;;;;;14.95;100.00;101408.13;5031706;28;20056;-75
2022/10/13 08:53:39;;;;;;;28.13;10.85;;;;;;;15.00;100.00;101406.91;5038208;28;20139;-73
2022/10/13 08:56:14;;;;;;;34.88;10.55;;;;;;;15.00;100.00;101409.69;5036006;28;20061;-75
2022/10/13 08:58:41;;;;;;;26.02;10.52;;;;;;;15.05;100.00;101407.25;5033262;28;22419;-75
2022/10/13 09:01:08;;;;;;;24.48;10.80;;;;;;;15.11;100.00;101405.59;5030519;28;20099;-75
2022/10/13 09:03:44;;;;;;;27.13;11.98;;;;;;;15.13;100.00;101397.59;5032554;28;20424;-76
2022/10/13 09:06:20;;;;;;;28.60;11.80;;;;;;;15.14;100.00;101393.63;5031166;28;20049;-74
2022/10/13 09:09:11;;;;;;;29.33;11.38;;;;;;;15.18;100.00;101393.59;5030593;28;20053;-74
2022/10/13 09:11:40;;;;;;;37.95;12.60;;;;;;;15.20;100.00;101396.78;5020656;28;20072;-74
2022/10/13 09:14:11;;;;;;;28.60;11.57;;;;;;;15.24;100.00;101398.31;5032839;28;20053;-77
2022/10/13 09:16:43;;;;;;;31.65;10.70;;;;;;;15.24;100.00;101398.31;5011102;28;20045;-75
2022/10/13 09:19:23;;;;;;;23.30;10.40;;;;;;;15.30;100.00;101393.09;5023113;28;20048;-74
2022/10/13 09:21:52;;;;;;;24.08;10.68;;;;;;;15.40;100.00;101395.00;5026250;28;20058;-76
2022/10/13 09:24:20;;;;;;;41.08;12.52;;;;;;;15.49;100.00;101382.16;5026308;28;20056;-75
2022/10/13 09:26:49;;;;;;;31.20;10.57;;;;;;;15.58;100.00;101373.28;5008920;28;20059;-76
2022/10/13 09:29:19;;;;;;;26.00;11.80;;;;;;;15.74;100.00;101372.72;5026003;28;20042;-73
2022/10/13 09:31:46;;;;;;;25.42;10.95;;;;;;;15.81;100.00;101370.63;5024542;28;20053;-76
2022/10/13 09:34:12;;;;;;;31.83;11.57;;;;;;;15.98;100.00;101368.81;5027384;28;20053;-77
2022/10/13 09:37:04;;;;;;;28.30;10.73;;;;;;;16.10;100.00;101357.88;5025624;28;20056;-73
2022/10/13 09:39:32;;;;;;;26.63;10.52;;;;;;;16.14;100.00;101360.66;5027581;28;20501;-74
2022/10/13 09:42:17;;;;;;;27.48;10.80;;;;;;;16.27;100.00;101353.28;5029747;28;20049;-74
2022/10/13 09:44:45;;;;;;;25.80;11.35;;;;;;;16.43;100.00;101359.06;5025653;28;20049;-74
2022/10/13 09:47:20;;;;;;;29.08;11.18;;;;;;;16.54;100.00;101356.91;5023435;28;20050;-74
2022/10/13 09:49:59;;;;;;;27.55;10.52;;;;;;;16.59;100.00;101364.78;5014995;28;20050;-75
2022/10/13 09:52:33;;;;;;;;;;;;;;;16.72;100.00;101361.00;5015102;28;20060;-75
2022/10/13 09:55:00;;;;;;;18.20;6.55;;;;;;;16.82;100.00;101362.03;5014793;28;19920;-75
2022/10/13 09:57:38;;;;;;;20.58;7.97;;;;;;;16.95;100.00;101363.81;5018291;28;20045;-74
2022/10/13 10:00:22;;;;;;;25.48;8.38;;;;;;;17.10;100.00;101367.94;5018061;28;20520;-74
2022/10/13 10:02:55;;;;;;;26.38;9.55;;;;;;;17.29;100.00;101375.59;5018207;28;20136;-74
2022/10/13 10:05:32;;;;;;;20.02;8.32;;;;;;;17.42;100.00;101361.81;5014993;28;20054;-75
2022/10/13 10:08:11;;;;;;;29.48;8.85;;;;;;;17.58;100.00;101359.88;5026155;28;20415;-75
2022/10/13 10:10:39;;;;;;;22.00;8.82;;;;;;;17.80;100.00;101360.25;5028519;28;20057;-75
2022/10/13 10:13:11;;;;;;;22.27;8.63;;;;;;;17.82;100.00;101352.97;5026457;28;20045;-74
2022/10/13 10:15:48;;;;;;;26.50;8.15;;;;;;;17.80;100.00;101351.84;5027737;28;20057;-74
2022/10/13 10:18:22;;;;;;;24.58;6.78;;;;;;;17.87;100.00;101357.28;5029244;28;20394;-74
2022/10/13 10:20:55;;;;;;;15.77;7.10;;;;;;;17.90;100.00;101350.84;5026838;28;20399;-74
2022/10/13 10:23:31;;;;;;;21.33;9.43;;;;;;;17.98;100.00;101352.25;5029894;28;20065;-74
2022/10/13 10:26:09;;;;;;;13.93;4.60;;;;;;;17.85;100.00;101340.91;5025079;28;20060;-76
2022/10/13 10:28:57;;;;;;;19.77;7.03;;;;;;;17.97;100.00;101347.88;5024744;28;20421;-76
2022/10/13 10:31:42;;;;;;;10.10;3.97;;;;;;;17.73;100.00;101343.59;5024415;28;20518;-77
2022/10/13 10:34:27;;;;;;;17.83;5.87;;;;;;;17.77;100.00;101344.31;5027866;28;20514;-76
2022/10/13 10:37:13;;;;;;;17.05;6.50;;;;;;;17.80;100.00;101343.44;5013964;28;20058;-76
2022/10/13 10:40:09;;;;;;;3.45;1.55;;;;;;;17.68;100.00;101342.06;5023276;28;20047;-76
2022/10/13 10:42:57;;;;;;;13.15;4.80;;;;;;;17.72;100.00;101336.44;5027052;28;20061;-76
2022/10/13 10:45:32;;;;;;;12.90;2.80;;;;;;;17.67;100.00;101329.31;5028810;28;20517;-76
2022/10/13 10:48:06;;;;;;;;;;;;;;;17.69;100.00;101328.88;5042416;28;20557;-74
2022/10/13 10:50:33;;;;;;;;;;;;;;;17.74;100.00;101328.38;5032280;28;19929;-73
2022/10/13 10:52:59;;;;;;;;;;;;;;;17.93;100.00;101319.94;5024089;28;20304;-76
2022/10/13 10:55:34;;;;;;;;;;;;;;;18.06;100.00;101313.69;5024895;28;19931;-70
2022/10/13 10:58:23;;;;;;;;;;;;;;;18.22;100.00;101310.94;5027110;28;19932;-74
2022/10/13 11:00:49;;;;;;;;;;;;;;;18.68;100.00;101307.81;5028473;28;19987;-74
2022/10/13 11:03:18;;;;;;;;;;;;;;;18.90;98.71;101312.44;5030614;28;19924;-74
2022/10/13 11:05:57;;;;;;;;;;;;;;;18.97;96.45;101315.06;5025506;28;19921;-74
2022/10/13 11:08:38;;;;;;;;;;;;;;;19.12;94.66;101304.28;5036088;28;20490;-74
2022/10/13 11:11:27;;;;;;;;;;;;;;;19.33;92.54;101287.69;5034273;28;20373;-74
2022/10/13 11:14:20;;;;;;;;;;;;;;;19.61;92.66;101294.50;5023706;28;19945;-74
2022/10/13 11:17:09;;;;;;;;;;;;;;;19.99;90.53;101287.75;5014867;28;19932;-74
2022/10/13 11:19:39;;;;;;;;;;;;;;;20.19;86.39;101285.50;5027488;28;19932;-74
2022/10/13 11:22:05;;;;;;;;;;;;;;;20.42;85.31;101276.75;5031169;28;19925;-74